createdAt,value
2019-02-25T10:36:31.097Z,102648.09
2019-02-25T10:41:34.947Z,102662.27
2019-02-25T10:46:39.015Z,102666.23
2019-02-25T10:51:43.982Z,102669.09
2019-02-25T10:56:54.110Z,102666.80
2019-02-25T11:01:56.699Z,102677.07
2019-02-25T11:07:00.811Z,102663.25
2019-02-25T11:12:03.793Z,102668.00
2019-02-25T11:17:06.387Z,102664.91
2019-02-25T11:22:10.507Z,102662.91
2019-02-25T11:27:13.514Z,102665.01
2019-02-25T11:32:17.334Z,102653.98
2019-02-25T11:37:22.545Z,102655.31
2019-02-25T11:42:25.114Z,102653.70
2019-02-25T11:47:30.501Z,102649.81
2019-02-25T11:52:33.212Z,102635.00
2019-02-25T11:57:35.639Z,102631.30
2019-02-25T12:02:38.030Z,102624.17
2019-02-25T12:07:40.562Z,102629.36
2019-02-25T12:12:43.190Z,102611.39
2019-02-25T12:17:45.701Z,102617.64
2019-02-25T12:22:48.117Z,102612.00
2019-02-25T12:27:50.634Z,102606.94
2019-02-25T12:32:53.139Z,102594.83
2019-02-25T12:37:55.579Z,102587.56
2019-02-25T12:42:58.218Z,102470.67
2019-02-25T12:48:00.669Z,102592.69
2019-02-25T12:53:03.031Z,102580.46
2019-02-25T12:58:05.336Z,102580.46
2019-02-25T13:03:07.719Z,102562.78
2019-02-25T13:08:10.425Z,102562.78
2019-02-25T13:13:12.931Z,102556.55
2019-02-25T13:18:15.315Z,102548.45
2019-02-25T13:23:17.680Z,102528.42
2019-02-25T13:28:21.369Z,102514.33
2019-02-25T13:33:24.031Z,102514.33
2019-02-25T13:38:26.374Z,102498.16
2019-02-25T13:43:28.631Z,102473.33
2019-02-25T13:48:30.967Z,102473.33
2019-02-25T13:53:33.630Z,102458.78
2019-02-25T13:58:37.171Z,102456.87
2019-02-25T14:03:39.867Z,102447.05
2019-02-25T14:08:42.334Z,102436.87
2019-02-25T14:13:45.169Z,102422.53
2019-02-25T14:18:47.500Z,102412.88
2019-02-25T14:23:49.860Z,102422.48
2019-02-25T14:28:52.428Z,102418.08
2019-02-25T14:33:54.897Z,102409.61
2019-02-25T14:38:59.455Z,102401.27
2019-02-25T14:44:01.152Z,102386.54
2019-02-25T14:49:03.469Z,102381.09
2019-02-25T14:54:05.744Z,102379.41
2019-02-25T14:59:12.574Z,102404.54
2019-02-25T15:04:14.027Z,102396.45
2019-02-25T15:09:16.468Z,102399.11
2019-02-25T15:14:19.284Z,102407.58
2019-02-25T15:19:21.573Z,102408.03
2019-02-25T15:24:24.169Z,102413.72
2019-02-25T15:29:26.345Z,102413.22
2019-02-25T15:34:28.563Z,102395.02
2019-02-25T15:39:31.249Z,102396.20
2019-02-25T15:44:33.483Z,102390.08
2019-02-25T15:49:35.842Z,102394.28
2019-02-25T15:54:39.344Z,102386.56
2019-02-25T15:59:42.322Z,102385.94
2019-02-25T16:04:44.426Z,102383.32
2019-02-25T16:09:46.530Z,102381.90
2019-02-25T16:14:49.294Z,102382.77
2019-02-25T16:34:49.289Z,102352.00
2019-02-25T16:39:51.407Z,102354.10
2019-02-25T16:44:57.158Z,102368.98
2019-02-25T16:49:58.598Z,102361.78
2019-02-25T16:55:02.165Z,102358.16
2019-02-25T17:00:09.629Z,102358.16
2019-02-25T17:05:11.620Z,102357.55
2019-02-25T17:10:15.391Z,102372.98
2019-02-25T17:15:18.040Z,102374.23
2019-02-25T17:20:20.534Z,102371.48
2019-02-25T17:25:26.824Z,102371.15
2019-02-25T17:30:27.251Z,102380.13
2019-02-25T17:35:30.728Z,102383.13
2019-02-25T17:40:35.214Z,102389.03
2019-02-25T17:45:41.116Z,102385.55
2019-02-25T17:50:43.455Z,102392.74
2019-02-25T17:55:45.539Z,102403.56
2019-02-25T18:00:47.916Z,102398.19
2019-02-25T18:05:50.020Z,102399.06
2019-02-25T18:10:52.812Z,102395.25
2019-02-25T18:15:56.277Z,102391.15
2019-02-25T18:20:58.863Z,102398.67
2019-02-25T18:26:01.255Z,102399.80
2019-02-25T18:31:04.403Z,102407.59
2019-02-25T18:36:08.882Z,102413.06
2019-02-25T18:41:11.232Z,102410.81
2019-02-25T18:46:13.593Z,102395.36
2019-02-25T18:51:16.205Z,102411.20
2019-02-25T18:56:20.462Z,102414.16
2019-02-25T19:01:23.529Z,102417.12
2019-02-25T19:06:26.274Z,102410.22
2019-02-25T19:11:28.808Z,102411.17
2019-02-25T19:16:31.196Z,102415.81
2019-02-25T19:21:34.151Z,102414.61
2019-02-25T19:26:38.080Z,102404.77
2019-02-25T19:31:42.523Z,102407.23
2019-02-25T19:36:44.995Z,102406.94
2019-02-25T19:41:49.159Z,102410.66
2019-02-25T19:46:53.831Z,102402.30
2019-02-25T19:51:56.127Z,102416.19
2019-02-25T19:56:58.251Z,102417.27
2019-02-25T20:02:00.594Z,102417.57
2019-02-25T20:07:02.974Z,102427.17
2019-02-25T20:12:05.201Z,102423.39
2019-02-25T20:17:07.780Z,102418.95
2019-02-25T20:22:11.936Z,102421.67
2019-02-25T20:27:14.407Z,102408.91
2019-02-25T20:32:18.515Z,102407.30
2019-02-25T20:37:22.905Z,102414.00
2019-02-25T20:42:28.673Z,102408.17
2019-02-25T20:52:52.755Z,102406.84
2019-02-25T20:57:55.031Z,102405.03
2019-02-25T21:03:01.183Z,102407.74
2019-02-25T21:08:04.063Z,102398.53
2019-02-25T21:13:06.766Z,102405.59
2019-02-25T21:18:08.950Z,102391.95
2019-02-25T21:23:12.542Z,102393.22
2019-02-25T21:28:15.147Z,102381.03
2019-02-25T21:33:19.722Z,102387.10
2019-02-25T21:38:23.788Z,102374.78
2019-02-25T21:43:28.841Z,102375.98
2019-02-25T21:48:53.166Z,102373.92
2019-02-25T21:53:55.926Z,102374.81
2019-02-25T21:58:57.732Z,102381.11
2019-02-25T22:04:00.409Z,102372.39
2019-02-25T22:09:05.099Z,102370.11
2019-02-25T22:14:07.881Z,102372.34
2019-02-25T22:19:12.007Z,102369.73
2019-02-25T22:24:14.553Z,102367.63
2019-02-25T22:29:17.173Z,102372.97
2019-02-25T22:34:20.631Z,102375.69
2019-02-25T22:39:25.220Z,102367.75
2019-02-25T22:44:29.595Z,102361.64
2019-02-25T22:49:32.677Z,102366.55
2019-02-25T22:54:37.118Z,102368.80
2019-02-25T22:59:38.964Z,102368.47
2019-02-25T23:04:44.937Z,102364.05
2019-02-25T23:09:48.109Z,102377.42
2019-02-25T23:14:50.470Z,102382.68
2019-02-25T23:19:54.612Z,102379.69
2019-02-25T23:24:57.662Z,102377.03
2019-02-25T23:30:00.696Z,102389.41
2019-02-25T23:35:09.269Z,102386.41
2019-02-25T23:40:12.017Z,102393.09
2019-02-25T23:45:19.918Z,102384.28
2019-02-25T23:50:27.370Z,102388.35
2019-02-25T23:55:32.142Z,102389.70
